• Join FlightAware (Why Join?)
  • Login
  • US Flag 
08:00PM EDT


 

Airport Tracker/Info


-or-


 

Live Flight TrackerFlight Track Log ✈ N123AD ✈ 03-Jul-2013 ✈ KDXR - KSOP

Flight Track Log - Related Links

Times and Time Zones

All times are in EDT time to prevent confusion due to time zone crossing. See the N123AD flight status page for this flight to view local times or setup timezone preferences in your user account.

Time Position Orientation Groundspeed Altitude Reporting Facility
EDT Latitude Longitude Course Direction KTS MPH feet Rate Location/Type
11:28AM 41.3500 -73.5167 236° Southwest 141 162 2,900  Level New York TRACON
11:29AM 41.3000 -73.5500 207° Southwest 187 215 4,500 2,040 Climbing New York TRACON
11:30AM 41.2833 -73.6167 252° West 178 205 7,000 1,200 Climbing New York TRACON
11:31AM 41.2500 -73.6833 236° Southwest 244 281 7,000  Level New York TRACON
11:32AM 41.2000 -73.7500 225° Southwest 256 295 7,000  Level New York TRACON
11:33AM 41.1667 -73.8333 242° Southwest 249 287 7,000 900 Level New York TRACON
11:34AM 41.1480 -73.8873 236° Southwest  Level FlightAware Approximate
11:34AM 41.1167 -73.9000 225° Southwest 217 250 8,900  Level New York TRACON
11:35AM 41.0667 -73.9500 217° Southwest 256 295 9,000 540 Climbing New York TRACON
11:36AM 41.0000 -73.9833 201° Southwest 246 283 10,000 480 Climbing New York TRACON
11:37AM 40.9333 -74.0167 201° Southwest 267 307 10,000  Level New York TRACON
11:38AM 40.8667 -74.0667 210° Southwest 260 299 10,000 360 Level New York TRACON
11:39AM 40.8500 -74.1500 255° West 245 282 10,800 960 Climbing New York TRACON
11:40AM 40.8167 -74.2333 242° Southwest 244 281 12,000 1,920 Climbing New York TRACON
11:43AM 40.7733 -74.3744 248° West 191 220 17,000 1,560 Climbing New York Center
11:44AM 40.7503 -74.4417 246° West 200 230 17,000  Level New York Center
11:45AM 40.7206 -74.5306 246° West 255 293 17,000 600 Level New York Center
11:46AM 40.6864 -74.6217 244° Southwest 262 302 18,300 1,320 Climbing New York Center
11:47AM 40.6614 -74.6858 243° Southwest 252 290 19,700 1,380 Climbing New York Center
11:48AM 40.6358 -74.7608 246° West 234 269 21,100 1,440 Climbing New York Center
11:49AM 40.6106 -74.8278 244° Southwest 229 264 22,600 1,440 Climbing New York Center
11:50AM 40.5875 -74.8947 246° West 212 244 24,100 1,380 Climbing New York Center
11:51AM 40.5644 -74.9589 245° Southwest 207 238 25,500 1,200 Climbing New York Center
11:52AM 40.5433 -75.0258 247° West 207 238 26,500 960 Climbing New York Center
11:53AM 40.5178 -75.0953 244° Southwest 213 245 27,500 960 Climbing New York Center
11:54AM 40.4800 -75.1558 231° Southwest 213 245 28,500 960 Climbing New York Center
11:55AM 40.4444 -75.2189 233° Southwest 219 252 29,500 960 Climbing New York Center
11:56AM 40.4067 -75.2792 231° Southwest 219 252 30,500 960 Climbing New York Center
11:57AM 40.3647 -75.3417 229° Southwest 219 252 31,500 960 Climbing New York Center
11:58AM 40.3269 -75.3992 229° Southwest 219 252 32,500 720 Climbing New York Center
11:59AM 40.2850 -75.4617 229° Southwest 224 258 33,000 480 Climbing New York Center
12:00PM 40.2406 -75.5294 229° Southwest 235 270 33,500 480 Climbing New York Center
12:01PM 40.1961 -75.5997 230° Southwest 247 284 34,000 480 Climbing New York Center
12:02PM 40.1494 -75.6697 229° Southwest 252 290 34,500 480 Climbing New York Center
12:03PM 40.1025 -75.7425 230° Southwest 258 297 35,000 480 Climbing New York Center
12:04PM 40.0536 -75.8150 229° Southwest 265 305 35,500 480 Climbing New York Center
12:06PM 39.9483 -75.9731 229° Southwest 262 302 36,600 480 Climbing Washington Center
12:07PM 39.9025 -76.0431 230° Southwest 267 307 37,100 480 Climbing Washington Center
12:08PM 39.8625 -76.1214 236° Southwest 267 307 37,600 480 Climbing Washington Center
12:09PM 39.8328 -76.2075 246° West 261 300 38,100 480 Climbing Washington Center
12:10PM 39.8011 -76.2911 244° Southwest 261 300 38,600 480 Climbing Washington Center
12:11PM 39.7653 -76.3717 240° Southwest 256 295 39,100 480 Climbing Washington Center
12:12PM 39.7169 -76.4331 224° Southwest 251 289 39,600 420 Climbing Washington Center
12:13PM 39.6686 -76.4944 224° Southwest 246 283 40,000 180 Climbing Washington Center
12:14PM 39.6139 -76.5558 221° Southwest 253 291 40,000  Level Washington Center
12:15PM 39.5592 -76.6250 224° Southwest 259 298 40,000  Level Washington Center
12:16PM 39.5044 -76.6942 224° Southwest 273 314 40,000  Level Washington Center
12:17PM 39.4453 -76.7633 222° Southwest 279 321 40,000  Level Washington Center
12:18PM 39.3844 -76.8267 219° Southwest 284 327 40,000  Level Washington Center
12:19PM 39.3211 -76.8875 217° Southwest 289 333 40,000  Level Washington Center
12:20PM 39.2581 -76.9533 219° Southwest 289 333 40,000  Level Washington Center
12:21PM 39.1947 -77.0136 216° Southwest 289 333 40,000  Level Washington Center
12:22PM 39.1314 -77.0794 219° Southwest 289 333 40,000  Level Washington Center
12:23PM 39.0661 -77.1422 217° Southwest 289 333 40,000  Level Washington Center
12:24PM 38.9964 -77.2103 217° Southwest 294 338 40,000  Level Washington Center
12:25PM 38.9372 -77.2703 218° Southwest 294 338 40,000  Level Washington Center
12:26PM 38.8694 -77.3300 214° Southwest 294 338 40,000  Level Washington Center
12:27PM 38.8061 -77.3925 218° Southwest 294 338 40,000  Level Washington Center
12:28PM 38.7383 -77.4572 217° Southwest 294 338 40,000  Level Washington Center
12:29PM 38.6728 -77.5222 218° Southwest 294 338 40,000  Level Washington Center
12:30PM 38.6092 -77.5897 220° Southwest 294 338 40,000  Level Washington Center
12:31PM 38.5350 -77.6592 216° Southwest 299 344 40,000  Level Washington Center
12:32PM 38.4714 -77.7239 219° Southwest 299 344 40,000  Level Washington Center
12:33PM 38.4056 -77.7881 217° Southwest 299 344 40,000  Level Washington Center
12:34PM 38.3397 -77.8525 218° Southwest 299 344 40,000  Level Washington Center
12:35PM 38.2739 -77.9139 216° Southwest 299 344 40,000  Level Washington Center
12:36PM 38.2081 -77.9778 217° Southwest 299 344 40,000 -300 Level Washington Center
12:37PM 38.1378 -78.0444 217° Southwest 304 350 39,500 -540 Descending Washington Center
12:38PM 38.0675 -78.1133 218° Southwest 314 361 39,000 -540 Descending Washington Center
12:39PM 37.9994 -78.1742 215° Southwest 319 367 38,500 -540 Descending Washington Center
12:40PM 37.9397 -78.2381 220° Southwest 319 367 38,000 -480 Descending Washington Center
12:41PM 37.8672 -78.3039 216° Southwest 319 367 37,600 -540 Descending Washington Center
12:42PM 37.7747 -78.3372 196° South 314 361 37,000 -900 Descending Washington Center
12:43PM 37.6906 -78.3736 199° South 314 361 35,900 -1,260 Descending Washington Center
12:44PM 37.6061 -78.4097 199° South 319 367 34,600 -1,380 Descending Washington Center
12:45PM 37.5219 -78.4433 198° South 319 367 33,200 -1,440 Descending Washington Center
12:46PM 37.4397 -78.4822 201° Southwest 319 367 31,700 -1,440 Descending Washington Center
12:47PM 37.3617 -78.5131 197° South 325 374 30,300 -1,500 Descending Washington Center
12:48PM 37.2753 -78.5517 200° South 330 380 28,800 -1,200 Descending Washington Center
12:49PM 37.1911 -78.5850 198° South 330 380 28,000 -420 Descending Washington Center
12:50PM 37.1131 -78.6208 200° South 320 368 28,000 -300 Level Washington Center
12:51PM 37.0325 -78.6672 205° Southwest 306 352 27,400 -600 Descending Washington Center
12:52PM 36.9742 -78.7428 226° Southwest 293 337 26,900 -540 Descending Washington Center
12:53PM 36.9042 -78.7894 208° Southwest 299 344 26,400 -480 Descending Washington Center
12:54PM 36.8186 -78.7883 179° South 285 328 26,000 -660 Descending Washington Center
12:55PM 36.7433 -78.7931 183° South 298 343 25,100 -1,260 Descending Washington Center
12:56PM 36.6575 -78.8103 189° South 310 357 23,500 -1,860 Descending Washington Center
12:57PM 36.5750 -78.8483 200° South 316 364 21,500 -2,040 Descending Washington Center
12:58PM 36.4908 -78.8756 195° South 321 369 19,500 -1,800 Descending Washington Center
12:59PM 36.4128 -78.9008 195° South 315 362 17,900 -1,740 Descending Washington Center
01:00PM 36.3286 -78.9256 193° South 292 336 16,000 -960 Descending Washington Center
01:01PM 36.2592 -78.9483 195° South 287 330 16,000  Level Washington Center
01:02PM 36.1772 -78.9758 195° South 288 331 16,000  Level Washington Center
01:03PM 36.1075 -78.9986 195° South 283 326 16,000 -480 Level Washington Center
01:04PM 36.0317 -79.0236 195° South 283 326 15,100 -1,260 Descending Washington Center
01:05PM 35.9622 -79.0436 193° South 286 329 13,800 -1,260 Descending Washington Center
01:05PM 35.8969 -79.0714 199° South 277 319 13,000 -480 Descending Washington Center
01:06PM 35.8289 -79.1119 206° Southwest 280 322 12,900 -840 Descending Washington Center
01:07PM 35.7569 -79.1472 202° Southwest 273 314 11,400 -1,500 Descending Washington Center
01:09PM 35.6908 -79.1956 211° Southwest 262 302 9,500 -1,680 Descending Washington Center
01:10PM 35.6272 -79.2283 203° Southwest 227 261 7,500 -1,500 Descending Washington Center
01:11PM 35.5789 -79.2389 190° South 204 235 6,600 -900 Descending Washington Center
01:12PM 35.5239 -79.2594 197° South 209 241 5,800 -840 Descending Washington Center
01:13PM 35.4572 -79.2614 181° South 216 249 4,900 -1,080 Descending Washington Center
01:14PM 35.3986 -79.2614 180° South 223 257 3,700 -900 Descending Washington Center
01:15PM 35.3381 -79.2661 184° South 214 246 3,100 4,140 Descending Washington Center
01:16PM 35.2794 -79.2686 182° South 214 246 12,000 4,440 Climbing Washington Center
01:17PM 35.2231 -79.2736 184° South 214 246 12,000  Level Washington Center